Time;durP1;ratioP1;P1;durP2;ratioP2;P2;SDS_P1;SDS_P2;PMS_P1;PMS_P2;Temp;Humidity;BMP_temperature;BMP_pressure;BME280_temperature;BME280_humidity;BME280_pressure;Samples;Min_cycle;Max_cycle;Signal;HPM_P1;HPM_P2
2022/03/04 00:00:29;;;;;;;27.88;15.00;;;;;;;2.85;70.94;100894.81;8319930;28;20413;-65
2022/03/04 00:04:30;;;;;;;30.50;14.98;;;;;;;2.76;71.65;100897.13;8326580;28;20037;-66
2022/03/04 00:08:30;;;;;;;28.52;15.35;;;;;;;2.59;72.06;100894.50;8327056;28;20530;-66
2022/03/04 00:12:31;;;;;;;33.85;15.02;;;;;;;2.58;72.61;100895.44;8327307;28;20041;-66
2022/03/04 00:16:31;;;;;;;28.88;14.43;;;;;;;2.54;72.55;100897.41;8347059;28;20112;-65
2022/03/04 00:20:33;;;;;;;29.42;14.45;;;;;;;2.59;72.02;100906.03;8322916;28;20041;-65
2022/03/04 00:24:33;;;;;;;30.63;14.98;;;;;;;2.60;72.66;100906.91;8317188;28;20270;-66
2022/03/04 00:28:34;;;;;;;29.33;14.70;;;;;;;2.49;72.77;100903.91;8326083;28;20053;-66
2022/03/04 00:32:35;;;;;;;33.47;15.55;;;;;;;2.40;72.98;100899.06;8327657;28;20501;-66
2022/03/04 00:36:38;;;;;;;38.45;16.10;;;;;;;2.20;74.42;100902.78;8359738;28;20131;-65
2022/03/04 00:40:38;;;;;;;29.17;15.32;;;;;;;1.90;75.91;100915.00;8331981;28;20175;-66
2022/03/04 00:44:39;;;;;;;33.22;16.92;;;;;;;1.77;77.17;100908.56;8308343;28;20037;-65
2022/03/04 00:48:40;;;;;;;36.90;16.75;;;;;;;1.32;80.13;100916.09;8325525;28;20057;-65
2022/03/04 00:52:41;;;;;;;34.85;17.13;;;;;;;1.38;80.29;100916.69;8325054;28;20033;-66
2022/03/04 00:56:41;;;;;;;31.75;16.75;;;;;;;1.42;80.02;100912.06;8325360;28;20494;-65
2022/03/04 01:00:42;;;;;;;41.15;16.40;;;;;;;1.79;78.54;100915.53;8358276;28;20036;-66
2022/03/04 01:04:42;;;;;;;34.65;16.23;;;;;;;1.99;77.11;100915.38;8325568;28;20037;-66
2022/03/04 01:08:43;;;;;;;31.52;16.05;;;;;;;2.14;76.08;100928.88;8325872;28;20037;-66
2022/03/04 01:12:43;;;;;;;33.95;15.45;;;;;;;2.00;76.27;100924.25;8326128;28;20490;-66
2022/03/04 01:16:44;;;;;;;29.20;15.63;;;;;;;1.98;76.82;100928.78;8308535;28;20474;-66
2022/03/04 01:20:44;;;;;;;28.27;14.93;;;;;;;2.11;76.17;100921.91;8322318;28;20044;-66
2022/03/04 01:24:44;;;;;;;30.95;16.05;;;;;;;2.18;75.29;100930.44;8304775;28;20038;-65
2022/03/04 01:28:45;;;;;;;35.92;16.17;;;;;;;2.05;76.20;100935.56;8332338;28;20048;-65
2022/03/04 01:32:46;;;;;;;33.72;16.17;;;;;;;2.06;76.69;100931.94;8358074;28;20485;-65
2022/03/04 01:36:46;;;;;;;34.20;16.60;;;;;;;1.96;77.37;100930.69;8332828;28;20033;-65
2022/03/04 01:40:47;;;;;;;36.00;17.05;;;;;;;1.92;77.26;100913.09;8331356;28;20030;-65
2022/03/04 01:44:47;;;;;;;41.80;17.85;;;;;;;1.88;77.33;100916.88;8355239;28;20044;-66
2022/03/04 01:48:48;;;;;;;38.10;16.65;;;;;;;2.05;76.39;100911.56;8374982;28;20124;-66
2022/03/04 01:52:48;;;;;;;33.95;16.42;;;;;;;2.21;75.51;100915.16;8362977;28;20063;-66
2022/03/04 01:56:49;;;;;;;34.92;16.83;;;;;;;2.34;74.91;100916.25;8363646;28;20254;-66
2022/03/04 02:00:51;;;;;;;34.20;16.77;;;;;;;2.38;74.67;100907.13;8345431;28;20037;-66
2022/03/04 02:04:51;;;;;;;38.65;17.38;;;;;;;2.40;74.42;100905.25;8322544;28;20029;-66
2022/03/04 02:08:52;;;;;;;29.55;16.10;;;;;;;2.49;73.54;100914.59;8310182;28;20044;-66
2022/03/04 02:12:53;;;;;;;33.35;16.85;;;;;;;2.52;73.44;100901.97;8342844;28;20037;-66
2022/03/04 02:16:54;;;;;;;33.83;16.30;;;;;;;2.43;74.17;100904.22;8352084;28;20041;-66
2022/03/04 02:20:59;;;;;;;29.42;15.25;;;;;;;2.49;74.24;100903.91;8361553;28;20485;-66
2022/03/04 02:25:00;;;;;;;30.33;15.85;;;;;;;2.49;73.61;100904.78;8329750;28;20060;-66
2022/03/04 02:29:01;;;;;;;31.92;15.48;;;;;;;2.51;73.61;100905.56;8326232;28;20124;-66
2022/03/04 02:33:01;;;;;;;30.38;14.88;;;;;;;2.37;74.32;100894.75;8329731;28;20032;-66
2022/03/04 02:37:02;;;;;;;37.65;15.45;;;;;;;2.44;73.54;100898.81;8316650;28;20091;-66
2022/03/04 02:41:03;;;;;;;31.48;14.75;;;;;;;2.47;73.17;100896.00;8329857;28;20060;-66
2022/03/04 02:45:03;;;;;;;32.22;14.98;;;;;;;2.46;73.33;100898.75;8344112;28;20033;-66
2022/03/04 02:49:05;;;;;;;36.65;15.13;;;;;;;2.53;72.52;100894.81;8354144;28;20493;-66
2022/03/04 02:53:06;;;;;;;29.42;14.85;;;;;;;2.46;73.30;100893.41;8376238;28;20460;-66
2022/03/04 02:57:06;;;;;;;29.17;15.43;;;;;;;2.40;73.16;100894.59;8359202;28;20103;-66
2022/03/04 03:01:07;;;;;;;31.38;16.27;;;;;;;2.38;73.63;100890.28;8319748;28;20045;-66
2022/03/04 03:05:09;;;;;;;32.50;15.35;;;;;;;2.30;73.69;100888.03;8328107;28;20124;-66
2022/03/04 03:09:09;;;;;;;32.17;15.73;;;;;;;2.24;74.00;100892.81;8356137;28;20052;-66
2022/03/04 03:13:10;;;;;;;34.15;16.05;;;;;;;2.26;73.96;100889.13;8327693;28;20121;-66
2022/03/04 03:17:10;;;;;;;29.38;15.70;;;;;;;2.37;73.15;100893.88;8298757;28;20042;-66
2022/03/04 03:21:11;;;;;;;29.67;15.20;;;;;;;2.49;72.70;100899.44;8324371;28;20041;-66
2022/03/04 03:25:12;;;;;;;33.20;15.75;;;;;;;2.58;72.42;100893.63;8359332;28;20045;-66
2022/03/04 03:29:12;;;;;;;26.70;14.30;;;;;;;2.53;72.22;100890.34;8327016;28;20052;-66
2022/03/04 03:33:12;;;;;;;30.50;14.75;;;;;;;2.54;72.24;100892.06;8343122;28;20041;-66
2022/03/04 03:37:13;;;;;;;32.50;15.07;;;;;;;2.60;72.15;100896.22;8360322;28;20520;-66
2022/03/04 03:41:13;;;;;;;28.42;13.73;;;;;;;2.59;71.57;100883.81;8359451;28;20033;-66
2022/03/04 03:45:14;;;;;;;31.73;15.30;;;;;;;2.61;71.27;100898.81;8341559;28;20033;-66
2022/03/04 03:49:14;;;;;;;31.55;14.80;;;;;;;2.59;71.29;100897.16;8359972;28;20156;-66
2022/03/04 03:53:15;;;;;;;37.78;15.60;;;;;;;2.66;71.05;100886.09;8355918;28;20049;-66
2022/03/04 03:57:15;;;;;;;30.02;14.15;;;;;;;2.61;70.84;100904.16;8343210;28;20509;-65
2022/03/04 04:01:16;;;;;;;31.50;14.65;;;;;;;2.30;71.89;100896.03;8369596;28;20086;-65
2022/03/04 04:05:17;;;;;;;31.02;14.98;;;;;;;2.01;73.94;100907.31;8368638;28;20043;-65
2022/03/04 04:09:17;;;;;;;34.40;15.52;;;;;;;1.72;75.58;100915.91;8354549;28;20045;-65
2022/03/04 04:13:17;;;;;;;33.10;15.98;;;;;;;1.74;75.55;100916.69;8355519;28;20508;-65
2022/03/04 04:17:18;;;;;;;31.27;15.63;;;;;;;1.79;75.42;100931.50;8348348;28;20034;-65
2022/03/04 04:21:18;;;;;;;35.50;15.73;;;;;;;1.82;75.16;100934.03;8346919;28;20040;-65
2022/03/04 04:25:19;;;;;;;36.13;17.00;;;;;;;1.89;75.10;100929.25;8369480;28;20040;-65
2022/03/04 04:29:19;;;;;;;35.67;16.02;;;;;;;1.89;74.64;100929.25;8356263;28;20538;-65
2022/03/04 04:33:20;;;;;;;31.17;16.15;;;;;;;1.95;74.57;100934.25;8336893;28;20043;-65
2022/03/04 04:37:20;;;;;;;38.28;16.63;;;;;;;1.87;75.27;100941.81;8373612;28;20091;-65
2022/03/04 04:41:22;;;;;;;36.42;16.75;;;;;;;1.72;75.99;100932.75;8337181;28;20461;-65
2022/03/04 04:45:22;;;;;;;41.15;18.20;;;;;;;1.48;77.17;100935.75;8340843;28;20048;-65
2022/03/04 04:49:24;;;;;;;41.42;18.05;;;;;;;1.40;77.76;100946.75;8340673;28;20071;-65
2022/03/04 04:53:29;;;;;;;43.80;19.38;;;;;;;1.07;79.69;100952.81;8357188;28;20404;-65
2022/03/04 04:57:30;;;;;;;36.05;16.95;;;;;;;0.72;82.16;100950.84;8332261;28;20397;-65
2022/03/04 05:01:30;;;;;;;35.35;17.25;;;;;;;0.72;82.61;100956.19;8351453;28;20040;-65
2022/03/04 05:05:31;;;;;;;37.78;17.95;;;;;;;0.83;81.85;100952.13;8354218;28;20386;-65
2022/03/04 05:09:31;;;;;;;31.30;16.60;;;;;;;0.66;82.24;100951.13;8314601;28;20524;-65
2022/03/04 05:13:32;;;;;;;38.97;16.80;;;;;;;0.73;81.40;100963.25;8366122;28;20319;-65
2022/03/04 05:17:32;;;;;;;37.97;18.33;;;;;;;0.46;82.38;100954.69;8338832;28;20065;-65
2022/03/04 05:21:33;;;;;;;35.58;17.08;;;;;;;0.32;82.55;100956.19;8323030;28;20041;-65
2022/03/04 05:25:33;;;;;;;35.15;16.40;;;;;;;0.20;84.34;100956.72;8360869;28;20551;-65
2022/03/04 05:29:34;;;;;;;34.65;16.38;;;;;;;0.12;84.51;100956.19;8333567;28;20152;-65
2022/03/04 05:33:34;;;;;;;38.40;18.25;;;;;;;0.24;83.75;100968.97;8369855;28;20033;-65
2022/03/04 05:37:35;;;;;;;39.60;18.30;;;;;;;0.28;83.09;100967.91;8365843;28;20401;-65
2022/03/04 05:41:35;;;;;;;40.10;17.65;;;;;;;0.23;83.22;100972.53;8341125;28;20581;-65
2022/03/04 05:45:36;;;;;;;40.85;16.92;;;;;;;0.12;83.66;100978.31;8337056;28;20097;-65
2022/03/04 05:49:37;;;;;;;40.38;17.55;;;;;;;-0.01;83.88;100975.31;8343668;28;20088;-65
2022/03/04 05:53:38;;;;;;;35.85;16.73;;;;;;;-0.01;83.87;100985.06;8347705;28;20064;-65
2022/03/04 05:57:38;;;;;;;35.63;16.90;;;;;;;-0.20;83.87;100984.97;8341111;28;20037;-65
2022/03/04 06:01:38;;;;;;;34.97;16.42;;;;;;;-0.21;84.84;100980.56;8334320;28;20748;-65
2022/03/04 06:05:39;;;;;;;38.53;16.50;;;;;;;-0.07;84.08;100991.50;8359583;28;20045;-65
2022/03/04 06:09:39;;;;;;;37.53;16.88;;;;;;;-0.08;84.37;100994.22;8372264;28;20099;-65
2022/03/04 06:13:40;;;;;;;38.55;16.55;;;;;;;-0.08;84.84;100989.78;8365661;28;20152;-66
2022/03/04 06:17:49;;;;;;;38.20;16.73;;;;;;;0.11;84.59;100999.63;8349292;28;20037;-66
2022/03/04 06:21:50;;;;;;;38.08;16.80;;;;;;;0.13;83.91;101003.09;8351888;28;20044;-66
2022/03/04 06:25:50;;;;;;;40.65;18.10;;;;;;;0.22;84.15;100998.28;8360742;28;20036;-66
2022/03/04 06:29:51;;;;;;;43.25;17.55;;;;;;;0.33;83.53;101005.81;8339676;28;20048;-66
2022/03/04 06:33:51;;;;;;;33.75;16.10;;;;;;;1.55;88.38;100995.78;8328383;28;20152;-62
2022/03/04 06:37:52;;;;;;;36.50;16.38;;;;;;;0.96;80.91;100995.00;8331845;28;20037;-66
2022/03/04 06:41:53;;;;;;;41.88;17.77;;;;;;;0.73;82.29;100997.84;8323567;28;20116;-66
2022/03/04 06:45:54;;;;;;;41.03;17.77;;;;;;;0.63;82.43;101004.47;8328284;28;20047;-66
2022/03/04 06:49:54;;;;;;;37.92;17.33;;;;;;;0.73;82.50;101016.47;8334910;28;20041;-66
2022/03/04 06:53:55;;;;;;;42.22;19.13;;;;;;;0.83;82.15;101023.09;8343689;28;20100;-66
2022/03/04 06:57:55;;;;;;;33.10;16.38;;;;;;;1.04;80.84;101027.47;8331187;28;20048;-66
2022/03/04 07:01:55;;;;;;;49.17;18.55;;;;;;;1.26;80.79;101036.22;8322537;28;20045;-66
2022/03/04 07:05:56;;;;;;;62.85;24.55;;;;;;;1.39;80.06;101026.72;8324365;28;20103;-66
2022/03/04 07:09:57;;;;;;;43.30;17.80;;;;;;;1.49;80.35;101039.56;8336209;28;20084;-66
2022/03/04 07:13:57;;;;;;;44.38;18.85;;;;;;;1.61;80.26;101032.78;8356233;28;20428;-66
2022/03/04 07:17:57;;;;;;;48.05;19.70;;;;;;;1.81;79.71;101043.38;8355072;28;20124;-66
2022/03/04 07:21:58;;;;;;;41.80;19.08;;;;;;;1.94;78.86;101056.06;8332204;28;20061;-66
2022/03/04 07:25:58;;;;;;;40.17;19.33;;;;;;;2.02;78.93;101048.53;8326138;28;20381;-66
2022/03/04 07:29:59;;;;;;;44.53;22.02;;;;;;;2.29;78.68;101057.03;8341986;28;20417;-66
2022/03/04 07:33:59;;;;;;;40.55;18.08;;;;;;;2.46;78.13;101048.16;8328681;28;20420;-66
2022/03/04 07:38:00;;;;;;;37.67;19.67;;;;;;;2.57;77.65;101068.03;8342371;28;20037;-66
2022/03/04 07:42:01;;;;;;;40.45;18.77;;;;;;;2.74;77.25;101068.03;8351674;28;20043;-73
2022/03/04 07:46:02;;;;;;;39.97;19.35;;;;;;;3.02;77.19;101063.00;8344832;28;20126;-66
2022/03/04 07:50:04;;;;;;;33.85;17.27;;;;;;;3.27;76.08;101058.09;8341067;28;20041;-66
2022/03/04 07:54:05;;;;;;;34.67;17.83;;;;;;;3.20;75.89;101064.72;8343887;28;20043;-66
2022/03/04 07:58:05;;;;;;;37.70;18.73;;;;;;;3.32;76.39;101064.06;8336058;28;20120;-66
2022/03/04 08:02:06;;;;;;;35.15;18.27;;;;;;;3.54;75.61;101058.44;8322466;28;20037;-66
2022/03/04 08:06:07;;;;;;;40.03;19.58;;;;;;;3.60;75.15;101058.09;8342336;28;20033;-66
2022/03/04 08:10:10;;;;;;;44.45;20.90;;;;;;;3.90;75.15;101057.25;8322518;28;20437;-66
2022/03/04 08:14:10;;;;;;;42.13;20.00;;;;;;;4.07;75.28;101065.22;8329230;28;20049;-66
2022/03/04 08:18:11;;;;;;;41.53;20.55;;;;;;;4.25;74.88;101062.44;8344088;28;20033;-66
2022/03/04 08:22:11;;;;;;;38.35;18.95;;;;;;;4.52;74.30;101066.22;8354945;28;20039;-66
2022/03/04 08:26:12;;;;;;;40.67;18.75;;;;;;;4.73;73.59;101064.94;8355726;28;20037;-66
2022/03/04 08:30:13;;;;;;;42.40;20.38;;;;;;;5.01;74.48;101065.03;8387129;28;20540;-66
2022/03/04 08:34:14;;;;;;;44.95;20.45;;;;;;;5.08;74.80;101066.38;8338362;28;20052;-66
2022/03/04 08:38:14;;;;;;;40.47;19.63;;;;;;;5.40;74.03;101071.50;8324355;28;20034;-66
2022/03/04 08:42:14;;;;;;;46.25;20.45;;;;;;;5.72;71.92;101074.84;8322633;28;20147;-66
2022/03/04 08:46:15;;;;;;;39.20;19.70;;;;;;;6.26;70.16;101076.75;8323940;28;20048;-66
2022/03/04 08:50:17;;;;;;;36.50;19.88;;;;;;;6.45;66.60;101085.31;8327583;28;20037;-66
2022/03/04 08:54:17;;;;;;;44.70;19.55;;;;;;;6.58;64.35;101083.53;8343017;28;20041;-66
2022/03/04 08:58:17;;;;;;;36.65;19.58;;;;;;;6.80;64.20;101072.22;8345925;28;20113;-66
2022/03/04 09:02:18;;;;;;;41.45;19.98;;;;;;;6.93;64.11;101084.75;8393788;28;20512;-66
2022/03/04 09:06:18;;;;;;;40.25;20.73;;;;;;;6.92;62.78;101093.75;8360616;28;20033;-66
2022/03/04 09:10:18;;;;;;;41.42;20.27;;;;;;;6.92;64.00;101085.69;8359766;28;20474;-66
2022/03/04 09:14:22;;;;;;;40.13;20.85;;;;;;;6.97;62.53;101082.69;8326532;28;20041;-66
2022/03/04 09:18:24;;;;;;;37.72;20.02;;;;;;;7.37;62.38;101093.28;8328582;28;20041;-66
2022/03/04 09:22:25;;;;;;;41.30;20.48;;;;;;;8.37;60.41;101088.78;8294644;28;20449;-66
2022/03/04 09:26:27;;;;;;;40.80;20.38;;;;;;;9.95;56.10;101080.00;8318806;28;20065;-66
2022/03/04 09:30:27;;;;;;;41.53;21.67;;;;;;;10.93;54.97;101088.06;8326116;28;20053;-66
2022/03/04 09:34:28;;;;;;;38.63;18.80;;;;;;;11.16;51.46;101098.66;8325143;28;20038;-66
2022/03/04 09:38:28;;;;;;;37.55;19.92;;;;;;;10.71;52.08;101091.72;8324690;28;20033;-66
2022/03/04 09:42:29;;;;;;;43.15;21.10;;;;;;;10.97;52.47;101086.78;8357224;28;20033;-66
2022/03/04 09:46:31;;;;;;;41.40;20.48;;;;;;;11.80;51.45;101094.84;8327963;28;20042;-66
2022/03/04 09:50:32;;;;;;;40.25;20.70;;;;;;;11.79;50.64;101082.31;8325371;28;20049;-66
2022/03/04 09:54:33;;;;;;;37.28;20.90;;;;;;;12.30;49.73;101086.78;8325058;28;20281;-66
2022/03/04 09:58:34;;;;;;;36.10;19.88;;;;;;;12.93;48.63;101080.94;8337859;28;20038;-66
2022/03/04 10:02:34;;;;;;;42.78;22.02;;;;;;;13.21;49.07;101077.38;8341381;28;20082;-66
2022/03/04 10:06:38;;;;;;;39.53;21.65;;;;;;;13.10;48.17;101080.25;8350871;28;20051;-66
2022/03/04 10:10:48;;;;;;;38.53;21.63;;;;;;;13.19;48.35;101080.25;8353187;28;20053;-66
2022/03/04 10:15:06;;;;;;;38.80;20.58;;;;;;;13.55;47.18;101081.34;8340701;28;20045;-66
2022/03/04 10:19:19;;;;;;;36.80;19.08;;;;;;;13.39;47.33;101083.81;8341736;28;20064;-66
2022/03/04 10:23:30;;;;;;;41.97;21.20;;;;;;;13.66;47.58;101075.72;8342563;28;20070;-66
2022/03/04 10:27:34;;;;;;;39.72;19.95;;;;;;;13.66;47.26;101067.56;8330954;28;20603;-66
2022/03/04 10:31:34;;;;;;;41.35;20.60;;;;;;;14.17;46.48;101069.81;8352052;28;20521;-66
2022/03/04 10:35:37;;;;;;;39.50;20.17;;;;;;;14.56;45.88;101066.81;8325494;28;20413;-66
2022/03/04 10:39:57;;;;;;;33.85;19.77;;;;;;;14.90;45.70;101065.13;8316866;28;21000;-66
2022/03/04 10:43:57;;;;;;;35.95;19.90;;;;;;;14.66;46.00;101066.72;8312484;28;20041;-66
2022/03/04 10:52:15;;;;;;;37.60;21.20;;;;;;;14.94;44.42;101050.19;8410910;27;20693;-65
2022/03/04 10:56:16;;;;;;;37.17;21.08;;;;;;;15.35;44.45;101057.72;8392207;28;20573;-65
2022/03/04 11:00:23;;;;;;;37.40;21.17;;;;;;;14.88;45.19;101045.34;8410534;28;20040;-65
2022/03/04 11:04:23;;;;;;;42.17;21.67;;;;;;;15.86;43.76;101043.28;8410792;28;20044;-65
2022/03/04 11:08:35;;;;;;;40.70;20.35;;;;;;;15.21;44.04;101047.38;8410726;28;20048;-65
2022/03/04 11:12:36;;;;;;;40.83;21.75;;;;;;;16.17;43.65;101040.88;8410203;28;20052;-66
2022/03/04 11:16:37;;;;;;;39.83;21.40;;;;;;;16.70;43.26;101038.69;8409493;28;20094;-66
2022/03/04 11:20:39;;;;;;;35.63;21.27;;;;;;;17.10;43.50;101030.56;8409990;28;20093;-66
2022/03/04 11:24:40;;;;;;;36.95;21.67;;;;;;;16.89;41.61;101033.78;8409926;28;20040;-66
2022/03/04 11:28:43;;;;;;;34.95;20.35;;;;;;;17.06;41.27;101031.94;8394137;28;20048;-66
2022/03/04 11:32:43;;;;;;;35.58;20.65;;;;;;;17.17;40.71;101037.06;8367802;28;20041;-66
2022/03/04 11:36:44;;;;;;;36.80;21.25;;;;;;;17.97;41.93;101039.75;8357281;28;20473;-66
2022/03/04 11:40:50;;;;;;;42.17;20.65;;;;;;;17.09;40.08;101026.13;8342900;28;20123;-66
2022/03/04 11:44:52;;;;;;;39.35;22.02;;;;;;;16.34;42.05;101020.81;8368405;28;20032;-66
2022/03/04 11:49:32;;;;;;;37.58;21.23;;;;;;;16.54;41.39;101025.88;8370540;28;20049;-67
2022/03/04 11:53:33;;;;;;;39.47;20.13;;;;;;;17.93;40.22;101030.16;8365339;28;20044;-66
2022/03/04 12:01:48;;;;;;;39.60;22.02;;;;;;;18.04;40.13;101021.56;8367907;27;20394;-65
2022/03/04 12:05:58;;;;;;;36.85;21.65;;;;;;;17.78;39.95;101004.53;8371071;28;20079;-67
2022/03/04 12:09:58;;;;;;;38.17;20.90;;;;;;;17.01;41.57;101004.25;8376182;27;20037;-67
2022/03/04 12:14:07;;;;;;;36.85;21.92;;;;;;;16.99;40.55;100998.13;8369668;28;20052;-66
2022/03/04 12:18:15;;;;;;;46.58;21.83;;;;;;;17.37;41.04;100986.47;8373935;27;20048;-66
2022/03/04 12:22:16;;;;;;;39.25;21.15;;;;;;;17.74;40.27;100981.31;8371461;27;20138;-66
2022/03/04 12:26:26;;;;;;;37.22;21.60;;;;;;;17.17;41.07;100982.41;8370564;28;20043;-67
2022/03/04 12:30:26;;;;;;;34.97;19.40;;;;;;;17.89;39.87;100963.16;8372939;28;20032;-65
2022/03/04 12:34:27;;;;;;;36.35;20.45;;;;;;;17.96;39.10;100976.97;8346857;28;20033;-66
2022/03/04 12:38:38;;;;;;;36.60;19.95;;;;;;;17.74;39.30;100969.50;8339541;28;20037;-66
2022/03/04 12:42:39;;;;;;;42.75;19.92;;;;;;;17.52;40.47;100971.13;8340302;28;20095;-66
2022/03/04 12:46:41;;;;;;;35.05;19.95;;;;;;;17.28;40.05;100958.31;8338057;28;20107;-66
2022/03/04 12:50:42;;;;;;;35.60;20.38;;;;;;;17.60;38.63;100958.28;8321479;28;20071;-66
2022/03/04 12:54:43;;;;;;;32.78;17.77;;;;;;;16.80;37.72;100958.31;8335890;28;20095;-66
2022/03/04 12:58:45;;;;;;;31.45;17.35;;;;;;;17.44;37.99;100958.31;8323272;28;20052;-66
2022/03/04 13:02:46;;;;;;;30.15;17.45;;;;;;;17.39;37.43;100960.66;8324392;28;20048;-66
2022/03/04 13:06:48;;;;;;;35.13;19.50;;;;;;;16.03;39.79;100959.66;8319561;28;20052;-66
2022/03/04 13:10:49;;;;;;;29.67;16.20;;;;;;;14.54;40.41;100965.41;8325266;28;20049;-66
2022/03/04 13:14:50;;;;;;;24.40;15.02;;;;;;;13.78;41.70;100944.09;8303597;28;20041;-66
2022/03/04 13:18:52;;;;;;;35.05;19.08;;;;;;;13.29;44.55;100956.16;8314472;28;20045;-66
2022/03/04 13:23:08;;;;;;;37.55;20.30;;;;;;;12.80;45.82;100950.94;8346437;28;20044;-66
2022/03/04 13:27:11;;;;;;;28.27;15.32;;;;;;;12.54;44.40;100948.97;8330524;28;20049;-65
2022/03/04 13:31:21;;;;;;;33.97;17.80;;;;;;;12.73;42.93;100952.53;8318942;28;20343;-66
2022/03/04 13:35:24;;;;;;;36.63;18.65;;;;;;;12.36;44.85;100946.09;8319318;28;20056;-65
2022/03/04 13:39:30;;;;;;;40.58;17.90;;;;;;;12.43;44.47;100946.38;8341996;28;20045;-66
2022/03/04 13:43:32;;;;;;;37.50;17.70;;;;;;;12.60;44.00;100932.97;8334535;28;20060;-65
2022/03/04 13:52:07;;;;;;;30.92;16.23;;;;;;;12.12;43.40;100920.38;8287473;28;20386;-64
2022/03/04 13:56:07;;;;;;;31.77;17.40;;;;;;;12.33;43.83;100929.25;8277986;28;20049;-65
2022/03/04 14:00:14;;;;;;;34.05;16.67;;;;;;;12.36;44.69;100918.13;8309430;28;20138;-65
2022/03/04 14:04:19;;;;;;;39.10;17.35;;;;;;;12.58;44.20;100918.69;8287177;28;20037;-65
2022/03/04 14:08:23;;;;;;;32.92;17.65;;;;;;;12.48;43.59;100912.44;8288658;28;20174;-65
2022/03/04 14:12:23;;;;;;;38.35;17.73;;;;;;;12.42;44.66;100917.56;8307570;28;20128;-65
2022/03/04 14:16:25;;;;;;;29.23;16.02;;;;;;;12.29;42.74;100908.84;8294536;28;20038;-66
2022/03/04 14:20:28;;;;;;;35.78;14.18;;;;;;;12.50;42.32;100909.56;8307316;28;20049;-65
2022/03/04 14:24:29;;;;;;;29.45;15.75;;;;;;;12.53;42.17;100899.28;8311433;28;20037;-66
2022/03/04 14:28:30;;;;;;;32.53;16.35;;;;;;;12.34;42.58;100903.84;8292661;28;20327;-65
2022/03/04 14:32:30;;;;;;;32.72;14.45;;;;;;;12.35;42.25;100905.56;8309523;28;20034;-66
2022/03/04 14:36:31;;;;;;;20.65;11.82;;;;;;;12.19;40.63;100905.25;8302538;28;20049;-65
2022/03/04 14:40:33;;;;;;;25.63;13.45;;;;;;;12.19;42.14;100906.13;8296565;28;20373;-65
2022/03/04 14:44:34;;;;;;;27.20;13.52;;;;;;;12.34;43.12;100909.28;8292890;28;20402;-65
2022/03/04 14:48:34;;;;;;;25.05;13.30;;;;;;;12.52;41.70;100903.00;8311813;28;20061;-65
2022/03/04 14:52:35;;;;;;;26.42;13.93;;;;;;;12.29;41.35;100908.84;8353805;28;20451;-65
2022/03/04 14:56:35;;;;;;;28.50;14.85;;;;;;;12.22;41.89;100911.25;8349776;28;20071;-65
2022/03/04 15:00:36;;;;;;;21.27;11.55;;;;;;;12.09;40.62;100896.28;8365303;28;20048;-65
2022/03/04 15:04:37;;;;;;;24.38;13.07;;;;;;;12.01;42.05;100904.28;8323070;28;20047;-65
2022/03/04 15:08:38;;;;;;;30.20;15.57;;;;;;;12.22;42.04;100904.97;8342319;28;20037;-65
2022/03/04 15:12:39;;;;;;;22.40;11.25;;;;;;;11.98;40.06;100888.28;8351628;28;20645;-65
2022/03/04 15:16:39;;;;;;;22.75;11.10;;;;;;;11.99;39.06;100879.16;8352313;28;20040;-65
2022/03/04 15:20:40;;;;;;;21.38;9.70;;;;;;;11.95;39.05;100883.16;8322093;28;20166;-65
2022/03/04 15:24:41;;;;;;;18.65;10.00;;;;;;;12.10;38.12;100882.56;8331181;28;20515;-65
2022/03/04 15:28:42;;;;;;;22.83;11.43;;;;;;;11.96;40.46;100890.28;8315122;28;20053;-65
2022/03/04 15:32:44;;;;;;;33.03;15.50;;;;;;;11.85;41.57;100888.53;8338777;28;20606;-65
2022/03/04 15:36:44;;;;;;;29.60;14.57;;;;;;;11.80;40.94;100888.09;8333180;28;20048;-65
2022/03/04 15:40:44;;;;;;;30.88;16.15;;;;;;;11.97;41.29;100878.44;8351590;28;20037;-65
2022/03/04 15:44:46;;;;;;;30.88;15.82;;;;;;;11.78;44.57;100890.94;8312881;28;20124;-65
2022/03/04 15:48:47;;;;;;;35.53;17.88;;;;;;;11.65;43.85;100895.75;8352723;28;20045;-65
2022/03/04 15:52:47;;;;;;;36.95;17.73;;;;;;;11.56;43.54;100888.44;8335284;28;20052;-65
2022/03/04 15:56:48;;;;;;;37.85;17.25;;;;;;;11.54;44.89;100887.72;8320872;28;20043;-65
2022/03/04 16:00:50;;;;;;;39.78;18.23;;;;;;;11.51;44.16;100885.28;8331177;28;20352;-65
2022/03/04 16:04:51;;;;;;;34.60;17.60;;;;;;;11.42;44.91;100887.97;8338668;28;20493;-65
2022/03/04 16:08:51;;;;;;;39.58;17.42;;;;;;;11.38;43.67;100883.81;8316828;28;20457;-65
2022/03/04 16:12:52;;;;;;;31.38;14.85;;;;;;;11.37;43.41;100896.50;8341331;28;20040;-65
2022/03/04 16:16:52;;;;;;;32.00;14.45;;;;;;;11.27;44.53;100884.78;8313577;28;20052;-65
2022/03/04 16:20:53;;;;;;;32.28;15.40;;;;;;;11.20;44.58;100889.00;8320506;28;20376;-65
2022/03/04 16:24:53;;;;;;;28.48;15.00;;;;;;;11.16;43.92;100886.72;8329895;28;20044;-65
2022/03/04 16:28:54;;;;;;;33.08;15.27;;;;;;;11.05;45.88;100879.53;8318509;28;20048;-65
2022/03/04 16:32:58;;;;;;;33.15;14.65;;;;;;;10.97;46.23;100882.06;8322620;28;20045;-65
2022/03/04 16:36:58;;;;;;;27.20;14.70;;;;;;;10.92;45.14;100884.28;8315938;28;20428;-65
2022/03/04 16:40:59;;;;;;;34.05;15.73;;;;;;;10.82;45.81;100883.38;8344041;28;20068;-65
2022/03/04 16:44:59;;;;;;;28.83;14.30;;;;;;;10.70;46.73;100879.03;8321776;28;20436;-65
2022/03/04 16:49:00;;;;;;;30.23;16.10;;;;;;;10.77;45.45;100873.97;8338606;28;20056;-65
2022/03/04 16:53:00;;;;;;;36.33;17.70;;;;;;;10.66;46.36;100874.91;8330046;28;20516;-65
2022/03/04 16:57:04;;;;;;;30.05;16.05;;;;;;;10.62;45.89;100881.56;8338780;28;20297;-65
2022/03/04 17:01:06;;;;;;;32.75;16.55;;;;;;;10.68;45.97;100875.63;8331550;28;20041;-65
2022/03/04 17:05:10;;;;;;;42.13;17.75;;;;;;;10.62;46.07;100876.16;8334737;28;20052;-65
2022/03/04 17:09:10;;;;;;;34.78;18.17;;;;;;;10.44;46.37;100872.34;8339664;28;20612;-65
2022/03/04 17:13:11;;;;;;;35.50;17.38;;;;;;;10.36;46.59;100880.22;8325990;28;20044;-65
2022/03/04 17:17:14;;;;;;;42.15;18.00;;;;;;;10.34;46.34;100879.47;8327631;28;20056;-65
2022/03/04 17:21:14;;;;;;;39.40;17.52;;;;;;;10.20;46.78;100882.50;8335396;28;20112;-65
2022/03/04 17:25:15;;;;;;;37.90;16.95;;;;;;;10.02;46.94;100886.72;8318436;28;20261;-65
2022/03/04 17:29:16;;;;;;;36.88;16.55;;;;;;;9.82;47.73;100887.50;8329174;28;20060;-65
2022/03/04 17:33:17;;;;;;;37.88;16.73;;;;;;;9.59;48.29;100893.97;8325378;28;20048;-65
2022/03/04 17:37:18;;;;;;;51.80;16.50;;;;;;;9.45;50.01;100894.22;8343431;28;20041;-65
2022/03/04 17:41:20;;;;;;;41.95;17.42;;;;;;;9.39;49.01;100900.97;8344357;28;20440;-65
2022/03/04 17:45:21;;;;;;;35.38;16.15;;;;;;;8.94;50.57;100901.94;8325875;28;20033;-65
2022/03/04 17:49:21;;;;;;;32.67;15.88;;;;;;;8.98;49.23;100902.56;8335129;28;20055;-65
2022/03/04 17:53:22;;;;;;;36.47;16.20;;;;;;;8.51;51.05;100897.34;8336568;28;20281;-65
2022/03/04 17:57:22;;;;;;;35.70;16.10;;;;;;;7.92;52.47;100902.69;8338138;28;20063;-65
2022/03/04 18:01:23;;;;;;;34.70;15.82;;;;;;;7.72;53.46;100900.59;8326894;28;20488;-65
2022/03/04 18:05:23;;;;;;;34.67;16.92;;;;;;;8.73;49.89;100898.25;8345712;28;20067;-65
2022/03/04 18:09:23;;;;;;;37.03;18.23;;;;;;;9.39;47.69;100905.50;8327299;28;20124;-65
2022/03/04 18:13:24;;;;;;;42.75;18.20;;;;;;;9.29;47.74;100912.63;8326511;28;20098;-65
2022/03/04 18:17:25;;;;;;;40.60;17.13;;;;;;;8.90;49.23;100910.38;8344941;28;20041;-65
2022/03/04 18:21:25;;;;;;;41.75;17.63;;;;;;;8.11;52.99;100899.47;8309615;28;20036;-65
2022/03/04 18:25:26;;;;;;;39.65;16.80;;;;;;;7.63;54.88;100909.34;8343928;28;20070;-65
2022/03/04 18:29:27;;;;;;;40.28;17.60;;;;;;;7.49;54.20;100920.28;8349182;28;20037;-65
2022/03/04 18:33:27;;;;;;;34.72;15.10;;;;;;;6.96;55.16;100934.00;8350470;28;20051;-65
2022/03/04 18:37:27;;;;;;;37.72;15.77;;;;;;;7.35;54.13;100941.09;8342617;28;20041;-65